Time;durP1;ratioP1;P1;durP2;ratioP2;P2;SDS_P1;SDS_P2;PMS_P1;PMS_P2;Temp;Humidity;BMP_temperature;BMP_pressure;BME280_temperature;BME280_humidity;BME280_pressure;Samples;Min_cycle;Max_cycle;Signal;HPM_P1;HPM_P2
2023/01/02 00:02:13;;;;;;;6.67;2.73;;;13.20;99.90;;;;;;4943149;28;20184;-87
2023/01/02 00:04:39;;;;;;;9.90;3.10;;;13.30;99.90;;;;;;4959351;28;20195;-88
2023/01/02 00:07:05;;;;;;;6.63;2.40;;;13.30;99.90;;;;;;4976378;28;20329;-87
2023/01/02 00:09:31;;;;;;;6.50;2.70;;;13.30;99.90;;;;;;4943219;28;20571;-86
2023/01/02 00:11:56;;;;;;;5.10;2.60;;;13.40;99.90;;;;;;4959213;28;20511;-87
2023/01/02 00:14:22;;;;;;;7.37;3.00;;;13.40;99.90;;;;;;4943038;28;20368;-87
2023/01/02 00:16:48;;;;;;;4.37;2.07;;;13.50;99.90;;;;;;4957997;28;20246;-86
2023/01/02 00:19:13;;;;;;;10.67;2.70;;;13.50;99.90;;;;;;4943226;28;20215;-86
2023/01/02 00:21:39;;;;;;;6.83;2.80;;;13.40;99.90;;;;;;4958614;28;20215;-88
2023/01/02 00:24:05;;;;;;;8.80;2.87;;;13.50;99.90;;;;;;4942931;28;20531;-88
2023/01/02 00:26:30;;;;;;;7.77;2.90;;;13.50;99.90;;;;;;4959075;28;20184;-86
2023/01/02 00:28:56;;;;;;;6.83;2.47;;;13.50;99.90;;;;;;4958898;28;20231;-86
2023/01/02 00:31:21;;;;;;;7.67;3.50;;;13.50;99.90;;;;;;4942798;28;20180;-86
2023/01/02 00:33:47;;;;;;;11.60;2.53;;;13.60;99.90;;;;;;4976167;28;20180;-86
2023/01/02 00:36:13;;;;;;;4.27;2.10;;;13.60;99.90;;;;;;4959370;28;20678;-86
2023/01/02 00:38:39;;;;;;;10.10;2.53;;;13.60;99.90;;;;;;4942435;28;20223;-88
2023/01/02 00:41:06;;;;;;;6.23;2.73;;;13.70;99.90;;;;;;4959007;28;20188;-87
2023/01/02 00:43:32;;;;;;;5.57;2.33;;;13.70;99.90;;;;;;4942973;28;20431;-89
2023/01/02 00:45:57;;;;;;;6.63;3.40;;;13.70;99.90;;;;;;4975757;28;20750;-89
2023/01/02 00:48:23;;;;;;;5.80;2.63;;;13.70;99.90;;;;;;4975740;28;20482;-87
2023/01/02 00:50:49;;;;;;;5.93;2.50;;;13.80;99.90;;;;;;4942733;28;20188;-88
2023/01/02 00:53:15;;;;;;;5.53;2.47;;;13.80;99.90;;;;;;4958612;28;20250;-88
2023/01/02 00:55:44;;;;;;;6.90;3.23;;;13.80;99.90;;;;;;4958452;28;20638;-89
2023/01/02 00:58:10;;;;;;;6.80;2.40;;;13.70;99.90;;;;;;4958689;28;20472;-88
2023/01/02 01:00:36;;;;;;;5.73;2.57;;;13.80;99.90;;;;;;4942168;28;20411;-88
2023/01/02 01:03:02;;;;;;;4.30;2.97;;;13.80;99.90;;;;;;4958868;28;20483;-88
2023/01/02 01:05:28;;;;;;;5.50;2.50;;;13.80;99.90;;;;;;4975544;28;20240;-89
2023/01/02 01:07:55;;;;;;;10.80;2.67;;;13.80;99.90;;;;;;4976062;28;20504;-87
2023/01/02 01:10:22;;;;;;;5.77;2.47;;;13.90;99.90;;;;;;4976134;28;20411;-86
2023/01/02 01:12:48;;;;;;;7.80;2.60;;;14.00;99.90;;;;;;4926719;28;20428;-85
2023/01/02 01:15:13;;;;;;;5.30;2.20;;;14.00;99.90;;;;;;4975657;28;20917;-86
2023/01/02 01:17:39;;;;;;;5.33;2.50;;;14.00;99.90;;;;;;4958177;28;20231;-85
2023/01/02 01:20:06;;;;;;;4.87;2.70;;;14.10;99.90;;;;;;4958667;28;20222;-85
2023/01/02 01:22:32;;;;;;;9.43;2.57;;;14.10;99.90;;;;;;4958452;28;20209;-85
2023/01/02 01:24:57;;;;;;;4.50;2.23;;;14.10;99.90;;;;;;4975515;28;20946;-86
2023/01/02 01:27:23;;;;;;;5.73;2.13;;;14.10;99.90;;;;;;4942651;28;20493;-85
2023/01/02 01:29:48;;;;;;;6.13;3.40;;;14.00;99.90;;;;;;4942179;28;20271;-85
2023/01/02 01:32:14;;;;;;;5.87;2.03;;;14.10;99.90;;;;;;4958628;28;20223;-85
2023/01/02 01:34:39;;;;;;;5.47;2.40;;;14.00;99.90;;;;;;4975654;28;20184;-85
2023/01/02 01:37:05;;;;;;;11.23;2.87;;;14.10;99.90;;;;;;4958362;28;20552;-85
2023/01/02 01:39:31;;;;;;;7.50;2.07;;;14.00;99.90;;;;;;4942583;28;20188;-88
2023/01/02 01:42:00;;;;;;;6.40;2.37;;;14.00;99.90;;;;;;4958211;28;20184;-85
2023/01/02 01:44:44;;;;;;;4.43;2.63;;;14.00;99.90;;;;;;4958522;28;20199;-85
2023/01/02 01:47:22;;;;;;;6.33;2.20;;;14.00;99.90;;;;;;4975706;28;20444;-85
2023/01/02 01:49:52;;;;;;;6.17;2.40;;;14.00;99.90;;;;;;4975377;28;20394;-86
2023/01/02 01:52:22;;;;;;;3.77;1.77;;;14.00;99.90;;;;;;4975569;28;20492;-86
2023/01/02 01:55:04;;;;;;;6.37;2.97;;;14.00;99.90;;;;;;4975176;28;20490;-85
2023/01/02 01:57:35;;;;;;;12.90;2.80;;;14.00;99.90;;;;;;4957997;28;20463;-86
2023/01/02 02:00:01;;;;;;;7.90;2.73;;;14.00;99.90;;;;;;4958288;28;20430;-86
2023/01/02 02:02:28;;;;;;;7.63;2.87;;;14.00;99.90;;;;;;4958314;28;20431;-85
2023/01/02 02:04:56;;;;;;;6.53;2.50;;;14.00;99.90;;;;;;4957409;28;20180;-85
2023/01/02 02:07:22;;;;;;;8.50;2.50;;;14.00;99.90;;;;;;4975777;28;20876;-86
2023/01/02 02:09:55;;;;;;;9.27;2.70;;;14.00;99.90;;;;;;4941603;28;20749;-86
2023/01/02 02:12:21;;;;;;;5.33;2.30;;;14.00;99.90;;;;;;4957787;28;20932;-85
2023/01/02 02:14:47;;;;;;;5.13;2.67;;;14.00;99.90;;;;;;4942163;28;20424;-85
2023/01/02 02:17:37;;;;;;;10.13;2.50;;;13.90;99.90;;;;;;4975355;28;21003;-85
2023/01/02 02:20:30;;;;;;;11.63;2.67;;;14.00;99.90;;;;;;4957815;28;20577;-85
2023/01/02 02:23:02;;;;;;;9.80;3.37;;;14.00;99.90;;;;;;4975256;28;20490;-86
2023/01/02 02:25:45;;;;;;;5.27;2.27;;;14.00;99.90;;;;;;4974979;28;20406;-88
2023/01/02 02:28:49;;;;;;;5.37;2.50;;;14.00;99.90;;;;;;4958134;28;20428;-86
2023/01/02 02:32:08;;;;;;;6.50;2.50;;;14.00;99.90;;;;;;4974730;28;20561;-85
2023/01/02 02:34:41;;;;;;;6.90;2.63;;;13.90;99.90;;;;;;4915170;29;20433;-85
2023/01/02 02:37:26;;;;;;;5.97;3.00;;;13.90;99.90;;;;;;4948331;28;20456;-85
2023/01/02 02:40:22;;;;;;;5.07;2.40;;;13.90;99.90;;;;;;4974700;28;20392;-86
2023/01/02 02:42:57;;;;;;;6.40;3.00;;;13.90;99.90;;;;;;4974783;28;20415;-86
2023/01/02 02:45:32;;;;;;;3.93;2.10;;;13.80;99.90;;;;;;4977829;28;20399;-86
2023/01/02 02:48:02;;;;;;;6.20;2.23;;;13.80;99.90;;;;;;4961263;28;20422;-86
2023/01/02 02:50:55;;;;;;;10.07;2.93;;;13.80;99.90;;;;;;4961274;28;20506;-85
2023/01/02 02:53:24;;;;;;;3.90;2.50;;;13.80;99.90;;;;;;4978190;28;20422;-85
2023/01/02 02:55:52;;;;;;;8.33;2.53;;;13.80;99.90;;;;;;4960609;28;20492;-84
2023/01/02 02:58:20;;;;;;;7.70;2.27;;;13.80;99.90;;;;;;4978477;28;20971;-85
2023/01/02 03:00:45;;;;;;;8.90;2.47;;;13.80;99.90;;;;;;4944956;28;20440;-85
2023/01/02 03:03:19;;;;;;;5.50;2.20;;;13.70;99.90;;;;;;4978283;28;20415;-85
2023/01/02 03:06:11;;;;;;;9.87;2.40;;;13.70;99.90;;;;;;4961012;28;20653;-85
2023/01/02 03:08:43;;;;;;;7.50;3.27;;;13.80;99.90;;;;;;4961291;28;20776;-85
2023/01/02 03:11:09;;;;;;;8.67;3.00;;;13.70;99.90;;;;;;4961243;28;20424;-84
2023/01/02 03:13:44;;;;;;;10.83;2.90;;;13.70;99.90;;;;;;4978267;28;20510;-85
2023/01/02 03:16:36;;;;;;;3.17;2.30;;;13.70;99.90;;;;;;4977860;28;20477;-85
2023/01/02 03:19:19;;;;;;;5.30;2.20;;;13.80;99.90;;;;;;4978021;28;21394;-85
2023/01/02 03:21:56;;;;;;;5.30;2.97;;;13.70;99.90;;;;;;4961096;28;20780;-86
2023/01/02 03:24:24;;;;;;;7.10;2.63;;;13.70;99.90;;;;;;4960884;28;20478;-85
2023/01/02 03:26:56;;;;;;;5.17;2.33;;;13.70;99.90;;;;;;4960410;28;20785;-85
2023/01/02 03:29:45;;;;;;;8.53;2.37;;;13.70;99.90;;;;;;4961017;28;20426;-85
2023/01/02 03:32:23;;;;;;;3.70;2.10;;;13.70;99.90;;;;;;4978004;28;20407;-85
2023/01/02 03:34:50;;;;;;;9.30;3.10;;;13.70;99.90;;;;;;4959900;28;20947;-85
2023/01/02 03:37:25;;;;;;;6.27;2.40;;;13.70;99.90;;;;;;4977472;28;20420;-84
2023/01/02 03:39:54;;;;;;;10.97;2.70;;;13.70;99.90;;;;;;4960254;28;20498;-85
2023/01/02 03:42:34;;;;;;;7.77;2.60;;;13.70;99.90;;;;;;4977845;28;20415;-85
2023/01/02 03:45:03;;;;;;;4.77;2.17;;;13.70;99.90;;;;;;4960334;28;20418;-85
2023/01/02 03:47:31;;;;;;;7.63;2.63;;;13.80;99.90;;;;;;4960057;28;20526;-85
2023/01/02 03:50:05;;;;;;;7.63;2.33;;;13.80;99.90;;;;;;4977406;28;20416;-84
2023/01/02 03:52:31;;;;;;;5.40;2.07;;;13.80;99.90;;;;;;4977448;28;20422;-85
2023/01/02 03:54:57;;;;;;;4.23;2.33;;;13.80;99.90;;;;;;4976821;28;20419;-85
2023/01/02 03:57:49;;;;;;;14.63;3.03;;;13.80;99.90;;;;;;4976675;28;20295;-85
2023/01/02 04:00:18;;;;;;;11.30;2.70;;;13.80;99.90;;;;;;4960339;28;20424;-85
2023/01/02 04:02:53;;;;;;;11.73;2.43;;;13.80;99.90;;;;;;4977268;28;20868;-85
2023/01/02 04:05:26;;;;;;;9.23;3.73;;;13.80;99.90;;;;;;4959738;28;20518;-85
2023/01/02 04:08:04;;;;;;;6.47;2.63;;;13.70;99.90;;;;;;4977221;28;20414;-85
2023/01/02 04:10:30;;;;;;;5.43;2.80;;;13.70;99.90;;;;;;4977300;28;20419;-85
2023/01/02 04:13:01;;;;;;;4.77;2.40;;;13.60;99.90;;;;;;4960202;28;20415;-84
2023/01/02 04:15:32;;;;;;;7.43;3.00;;;13.60;99.90;;;;;;4959930;28;20424;-85
2023/01/02 04:18:06;;;;;;;9.40;2.73;;;13.50;99.90;;;;;;4959280;28;20503;-85
2023/01/02 04:20:37;;;;;;;6.30;2.50;;;13.50;99.90;;;;;;4977165;28;20388;-84
2023/01/02 04:23:08;;;;;;;7.63;2.37;;;13.50;99.90;;;;;;4959586;28;20408;-85
2023/01/02 04:26:09;;;;;;;7.37;2.30;;;13.50;99.90;;;;;;4976953;28;20470;-84
2023/01/02 04:28:35;;;;;;;7.83;2.97;;;13.60;99.90;;;;;;4956761;28;20436;-85
2023/01/02 04:31:14;;;;;;;7.97;2.93;;;13.60;99.90;;;;;;4958896;28;20418;-84
2023/01/02 04:33:44;;;;;;;5.40;2.80;;;13.60;99.90;;;;;;4976977;28;20396;-87
2023/01/02 04:36:12;;;;;;;7.23;2.57;;;13.60;99.90;;;;;;4976682;28;20404;-84
2023/01/02 04:38:39;;;;;;;5.87;2.60;;;13.60;99.90;;;;;;4959374;28;20475;-86
2023/01/02 04:41:06;;;;;;;7.63;2.03;;;13.50;99.90;;;;;;4958965;28;20424;-86
2023/01/02 04:43:31;;;;;;;8.87;3.00;;;13.50;99.90;;;;;;4976699;28;20424;-86
2023/01/02 04:45:57;;;;;;;6.43;2.17;;;13.50;99.90;;;;;;4958518;28;20939;-85
2023/01/02 04:48:22;;;;;;;6.53;3.03;;;13.40;99.90;;;;;;4959486;28;20283;-85
2023/01/02 04:50:48;;;;;;;8.13;2.80;;;13.40;99.90;;;;;;4943332;28;20235;-87
2023/01/02 04:53:14;;;;;;;16.37;3.30;;;13.40;99.90;;;;;;4943549;28;20181;-85
2023/01/02 04:55:40;;;;;;;6.73;2.70;;;13.40;99.90;;;;;;4943226;28;20195;-86
2023/01/02 04:58:06;;;;;;;6.63;3.07;;;13.40;99.90;;;;;;4976245;28;20952;-86
2023/01/02 05:00:32;;;;;;;9.97;2.50;;;13.40;99.90;;;;;;4959598;28;20765;-85
2023/01/02 05:02:57;;;;;;;9.23;2.50;;;13.40;99.90;;;;;;4958767;28;20509;-85
2023/01/02 05:05:23;;;;;;;7.90;3.13;;;13.40;99.90;;;;;;4942721;28;20519;-85
2023/01/02 05:07:49;;;;;;;5.80;2.13;;;13.40;99.90;;;;;;4958647;28;20640;-86
2023/01/02 05:10:14;;;;;;;4.80;2.30;;;13.40;99.90;;;;;;4942612;28;20192;-85
2023/01/02 05:12:40;;;;;;;6.80;2.10;;;13.50;99.90;;;;;;4943127;28;20526;-85
2023/01/02 05:15:08;;;;;;;11.67;3.33;;;13.50;99.90;;;;;;4942669;28;20184;-85
2023/01/02 05:17:38;;;;;;;4.10;2.30;;;13.50;99.90;;;;;;4958292;28;20208;-84
2023/01/02 05:20:05;;;;;;;8.90;2.60;;;13.50;99.90;;;;;;4975797;28;20419;-84
2023/01/02 05:25:15;;;;;;;3.40;2.00;;;13.70;99.90;;;;;;4975688;28;20418;-86
2023/01/02 05:27:41;;;;;;;4.33;2.10;;;13.70;99.90;;;;;;4958689;28;20427;-84
2023/01/02 05:30:07;;;;;;;3.63;1.73;;;13.70;99.90;;;;;;4975769;28;20187;-85
2023/01/02 05:32:33;;;;;;;7.70;3.20;;;13.80;99.90;;;;;;4958118;28;20633;-84
2023/01/02 05:34:58;;;;;;;5.20;1.80;;;13.80;99.90;;;;;;4958680;28;20412;-84
2023/01/02 05:37:24;;;;;;;4.93;2.20;;;13.80;99.90;;;;;;4975559;28;20187;-84
2023/01/02 05:39:50;;;;;;;5.43;2.63;;;13.90;99.90;;;;;;4975583;28;20172;-85
2023/01/02 05:42:15;;;;;;;5.97;1.83;;;13.80;99.90;;;;;;4975431;28;20180;-84
2023/01/02 05:44:41;;;;;;;7.70;2.40;;;13.80;99.90;;;;;;4958024;28;20180;-84
2023/01/02 05:47:06;;;;;;;6.40;1.60;;;13.80;99.90;;;;;;4957765;28;20641;-84
2023/01/02 05:49:32;;;;;;;6.83;2.10;;;13.80;99.90;;;;;;4958171;28;20188;-84
2023/01/02 05:51:57;;;;;;;6.03;1.90;;;13.80;99.90;;;;;;4955559;28;20180;-85
2023/01/02 05:54:23;;;;;;;12.53;2.70;;;13.70;99.90;;;;;;4937589;28;20188;-85
2023/01/02 05:56:48;;;;;;;7.73;2.63;;;13.70;99.90;;;;;;4919539;28;20200;-86
2023/01/02 05:59:14;;;;;;;5.03;2.43;;;13.70;99.90;;;;;;4935171;28;20810;-85
2023/01/02 06:01:40;;;;;;;3.50;2.00;;;13.70;99.90;;;;;;4939645;28;20545;-85
2023/01/02 06:04:06;;;;;;;4.97;2.50;;;13.60;99.90;;;;;;4957460;28;20415;-84
2023/01/02 06:06:36;;;;;;;4.13;2.10;;;13.60;99.90;;;;;;4974484;28;20235;-84
2023/01/02 06:09:04;;;;;;;7.80;2.30;;;13.70;99.90;;;;;;4957155;28;20176;-85
2023/01/02 06:11:30;;;;;;;3.43;2.10;;;13.70;99.90;;;;;;4975086;28;20416;-84
2023/01/02 06:13:56;;;;;;;4.47;2.00;;;13.70;99.90;;;;;;4957464;28;20849;-86
2023/01/02 06:16:23;;;;;;;5.27;1.90;;;13.70;99.90;;;;;;4957827;28;20426;-85
2023/01/02 06:18:50;;;;;;;9.47;2.60;;;13.60;99.90;;;;;;4953577;28;20468;-85
2023/01/02 06:21:17;;;;;;;7.03;2.47;;;13.60;99.90;;;;;;4974408;28;20490;-84
2023/01/02 06:23:44;;;;;;;3.80;1.90;;;13.60;99.90;;;;;;4961637;28;20465;-85
2023/01/02 06:26:09;;;;;;;5.17;2.67;;;13.50;99.90;;;;;;4961128;28;20427;-85
2023/01/02 06:28:35;;;;;;;6.57;2.63;;;13.50;99.90;;;;;;4961384;28;20480;-85
2023/01/02 06:31:03;;;;;;;3.77;1.90;;;13.50;99.90;;;;;;4978315;28;20176;-85
2023/01/02 06:33:29;;;;;;;7.63;2.67;;;13.50;99.90;;;;;;4978514;28;20175;-85
2023/01/02 06:35:59;;;;;;;9.07;2.17;;;13.50;99.90;;;;;;4960858;28;20424;-85
2023/01/02 06:38:25;;;;;;;7.63;2.10;;;13.50;99.90;;;;;;4961248;28;20479;-85
2023/01/02 06:40:55;;;;;;;6.40;2.13;;;13.50;99.90;;;;;;4961571;28;20423;-84
2023/01/02 06:43:21;;;;;;;6.30;2.80;;;13.50;99.90;;;;;;4961230;28;20212;-85
2023/01/02 06:45:46;;;;;;;4.17;2.20;;;13.50;99.90;;;;;;4978280;28;20450;-84
2023/01/02 06:48:12;;;;;;;5.00;1.80;;;13.40;99.90;;;;;;4960765;28;20940;-84
2023/01/02 06:50:38;;;;;;;7.10;2.40;;;13.40;99.90;;;;;;4960960;28;20188;-84
2023/01/02 06:53:03;;;;;;;11.27;3.57;;;13.40;99.90;;;;;;4960924;28;20275;-85
2023/01/02 06:55:29;;;;;;;4.23;2.03;;;13.40;99.90;;;;;;4978522;28;20239;-84
2023/01/02 06:57:55;;;;;;;5.47;2.23;;;13.40;99.90;;;;;;4945346;28;20262;-85
2023/01/02 07:00:20;;;;;;;5.63;2.30;;;13.30;99.90;;;;;;4978044;28;20183;-85
2023/01/02 07:02:46;;;;;;;4.60;2.57;;;13.30;99.90;;;;;;4945412;28;20180;-84
2023/01/02 07:05:11;;;;;;;4.87;2.37;;;13.20;99.90;;;;;;4960211;28;20240;-83
2023/01/02 07:07:37;;;;;;;5.50;2.20;;;13.10;99.90;;;;;;4928867;28;20211;-84
2023/01/02 07:10:04;;;;;;;12.97;2.73;;;13.10;99.90;;;;;;4960213;28;20384;-84
2023/01/02 07:12:29;;;;;;;13.33;3.27;;;12.90;99.90;;;;;;4961077;28;20180;-84
2023/01/02 07:14:55;;;;;;;8.63;3.20;;;12.80;99.90;;;;;;4944936;28;20424;-83
2023/01/02 07:17:20;;;;;;;10.63;3.13;;;12.60;99.90;;;;;;4977660;28;20255;-83
2023/01/02 07:19:46;;;;;;;4.00;2.60;;;12.40;99.90;;;;;;4977872;28;20184;-82
2023/01/02 07:22:12;;;;;;;5.47;2.33;;;12.30;99.90;;;;;;4960686;28;20180;-82
2023/01/02 07:24:37;;;;;;;3.70;2.20;;;12.20;99.90;;;;;;4961372;28;20537;-82
2023/01/02 07:27:03;;;;;;;12.40;2.90;;;12.00;99.90;;;;;;4960640;28;20242;-81
2023/01/02 07:29:29;;;;;;;8.90;2.70;;;11.90;99.90;;;;;;4961049;28;20312;-82
2023/01/02 07:31:54;;;;;;;5.90;3.33;;;11.80;99.90;;;;;;4945145;28;20188;-84
2023/01/02 07:34:20;;;;;;;6.07;3.30;;;11.80;99.90;;;;;;4960771;28;20177;-82
2023/01/02 07:36:45;;;;;;;7.37;2.87;;;11.80;99.90;;;;;;4960668;28;20188;-81
2023/01/02 07:39:11;;;;;;;6.63;3.43;;;11.70;99.90;;;;;;4960437;28;20226;-81
2023/01/02 07:41:36;;;;;;;9.50;2.93;;;11.70;99.90;;;;;;4961199;28;20180;-81
2023/01/02 07:44:02;;;;;;;9.17;3.90;;;11.70;99.90;;;;;;4978823;28;20258;-81
2023/01/02 07:46:27;;;;;;;7.07;2.83;;;11.70;99.90;;;;;;4945169;28;20243;-81
2023/01/02 07:48:53;;;;;;;3.80;2.53;;;11.70;99.90;;;;;;4960945;28;20645;-80
2023/01/02 07:51:19;;;;;;;4.47;3.50;;;11.70;99.90;;;;;;4977816;28;20296;-80
2023/01/02 07:53:44;;;;;;;23.77;16.40;;;11.60;99.90;;;;;;4977835;28;20187;-81
2023/01/02 07:56:10;;;;;;;17.03;4.43;;;11.50;99.90;;;;;;4977879;28;20195;-81
2023/01/02 07:58:36;;;;;;;13.77;5.03;;;11.50;99.90;;;;;;4960508;28;20204;-81
2023/01/02 08:01:11;;;;;;;7.50;3.43;;;11.50;99.90;;;;;;4944699;28;20271;-81
2023/01/02 08:03:37;;;;;;;8.07;3.33;;;11.40;99.90;;;;;;4977849;28;20411;-80
2023/01/02 08:06:08;;;;;;;7.73;3.03;;;11.50;99.90;;;;;;4977684;28;20467;-81
2023/01/02 08:08:35;;;;;;;6.03;3.17;;;11.50;99.90;;;;;;4977610;28;20723;-80
2023/01/02 08:11:11;;;;;;;4.43;3.10;;;11.50;99.90;;;;;;4977720;28;20420;-85
2023/01/02 08:13:37;;;;;;;7.60;3.03;;;11.50;99.90;;;;;;4961771;28;20404;-80
2023/01/02 08:16:07;;;;;;;8.10;3.73;;;11.40;99.90;;;;;;4960725;28;20427;-82
2023/01/02 08:18:33;;;;;;;5.80;3.05;;;11.30;99.90;;;;;;4960779;28;20963;-81
2023/01/02 08:20:58;;;;;;;6.67;3.23;;;11.30;99.90;;;;;;4960096;28;20191;-81
2023/01/02 08:23:24;;;;;;;5.03;2.90;;;11.30;99.90;;;;;;4943821;28;20600;-80
2023/01/02 08:25:50;;;;;;;6.07;3.47;;;11.30;99.90;;;;;;4943459;28;20550;-80
2023/01/02 08:28:15;;;;;;;5.53;3.40;;;11.30;99.90;;;;;;4976612;28;20192;-83
2023/01/02 08:30:41;;;;;;;7.97;3.07;;;11.30;99.90;;;;;;4959613;28;20665;-83
2023/01/02 08:33:06;;;;;;;8.53;3.70;;;11.30;99.90;;;;;;4927206;28;20218;-86
2023/01/02 08:35:32;;;;;;;5.50;2.87;;;11.30;99.90;;;;;;4976266;28;20206;-85
2023/01/02 08:37:58;;;;;;;5.57;2.57;;;11.30;99.90;;;;;;4975774;28;20298;-85
2023/01/02 08:40:23;;;;;;;7.87;3.07;;;11.20;99.90;;;;;;4975657;28;20184;-85
2023/01/02 08:42:49;;;;;;;5.47;2.87;;;11.30;99.90;;;;;;4957831;28;20184;-85
2023/01/02 08:45:15;;;;;;;4.83;2.53;;;11.20;99.90;;;;;;4926557;28;20188;-85
2023/01/02 08:47:41;;;;;;;7.30;2.77;;;11.20;99.90;;;;;;4975678;28;20427;-85
2023/01/02 08:50:06;;;;;;;4.23;2.83;;;11.30;99.90;;;;;;4975577;28;20412;-85
2023/01/02 08:52:32;;;;;;;8.03;2.23;;;11.30;99.90;;;;;;4958791;28;20522;-84
2023/01/02 08:54:59;;;;;;;6.67;2.50;;;11.30;99.90;;;;;;4975012;28;20431;-85
2023/01/02 08:57:25;;;;;;;5.75;2.10;;;11.40;99.90;;;;;;4958074;28;20259;-84
2023/01/02 08:59:51;;;;;;;3.33;1.70;;;11.40;99.90;;;;;;4975531;28;20180;-85
2023/01/02 09:02:17;;;;;;;5.30;1.90;;;;;;;;;;4957669;28;20450;-85
2023/01/02 09:04:43;;;;;;;3.38;1.70;;;11.40;99.90;;;;;;4958781;28;20422;-85
2023/01/02 09:07:09;;;;;;;6.20;1.53;;;11.40;99.90;;;;;;4957583;28;20224;-85
2023/01/02 09:09:34;;;;;;;3.83;2.17;;;11.50;99.90;;;;;;4946417;29;20340;-85
2023/01/02 09:12:00;;;;;;;2.27;1.77;;;11.40;99.90;;;;;;4955962;29;20200;-85
2023/01/02 09:14:25;;;;;;;3.97;2.47;;;11.40;99.90;;;;;;4974765;28;20528;-85
2023/01/02 09:16:52;;;;;;;3.17;2.03;;;;;;;;;;4977526;28;20186;-86
2023/01/02 09:19:18;;;;;;;4.73;1.70;;;11.40;99.90;;;;;;4976899;28;20213;-85
2023/01/02 09:21:44;;;;;;;6.75;2.88;;;11.40;99.90;;;;;;4966866;28;20420;-85
2023/01/02 09:24:10;;;;;;;4.28;2.10;;;11.40;99.90;;;;;;4975010;28;20587;-85
2023/01/02 09:26:36;;;;;;;8.70;2.67;;;11.40;99.90;;;;;;4957646;28;20247;-85
2023/01/02 09:29:03;;;;;;;4.30;2.10;;;11.40;99.90;;;;;;4958016;28;20756;-85
2023/01/02 09:31:29;;;;;;;6.88;2.13;;;11.40;99.90;;;;;;4986256;28;20423;-85
2023/01/02 09:33:55;;;;;;;2.73;1.80;;;11.40;99.90;;;;;;4961108;28;20194;-85
2023/01/02 09:36:21;;;;;;;5.40;1.80;;;11.40;99.90;;;;;;4960616;28;20954;-85
2023/01/02 09:38:57;;;;;;;2.65;1.80;;;11.40;99.90;;;;;;4994737;28;20242;-85
2023/01/02 09:41:37;;;;;;;4.10;1.50;;;11.40;99.90;;;;;;4976685;28;20214;-85
2023/01/02 09:44:12;;;;;;;2.65;1.38;;;;;;;;;;4994591;28;20596;-85
2023/01/02 09:46:41;;;;;;;2.88;1.60;;;;;;;;;;4984301;28;20179;-85
2023/01/02 09:49:09;;;;;;;2.15;1.35;;;;;;;;;;4954270;29;20260;-85
2023/01/02 09:51:35;;;;;;;2.40;1.08;;;;;;;;;;4955749;29;20175;-85
2023/01/02 09:54:02;;;;;;;1.95;1.50;;;;;;;;;;4922245;29;20188;-85
2023/01/02 09:56:32;;;;;;;2.05;1.60;;;;;;;;;;4938225;29;20231;-85
2023/01/02 09:59:35;;;;;;;1.98;1.40;;;10.90;99.90;;;;;;4938716;29;20307;-84
2023/01/02 10:02:17;;;;;;;1.50;1.30;;;;;;;;;;4956282;29;20184;-84
2023/01/02 10:04:57;;;;;;;2.40;1.73;;;10.70;99.90;;;;;;4938500;29;20255;-84
2023/01/02 10:07:36;;;;;;;2.75;1.58;;;10.70;99.90;;;;;;4955372;29;20537;-84
2023/01/02 10:10:23;;;;;;;1.40;1.30;;;10.60;99.90;;;;;;4938745;29;20183;-84
2023/01/02 10:13:13;;;;;;;1.60;1.50;;;10.60;99.90;;;;;;4938609;29;20216;-84
2023/01/02 10:15:45;;;;;;;2.13;1.70;;;10.60;99.90;;;;;;4955848;29;20503;-84
2023/01/02 10:18:17;;;;;;;2.92;1.70;;;10.60;99.90;;;;;;4955525;29;20675;-84
2023/01/02 10:20:47;;;;;;;2.40;1.70;;;10.60;99.90;;;;;;4955490;29;20177;-85
2023/01/02 10:23:21;;;;;;;2.80;2.50;;;10.60;99.90;;;;;;4955370;29;20176;-85
2023/01/02 10:26:15;;;;;;;4.40;3.25;;;10.50;99.90;;;;;;4950110;28;20184;-86
2023/01/02 10:28:58;;;;;;;2.72;2.10;;;10.50;99.90;;;;;;4957391;28;20180;-85
2023/01/02 10:31:27;;;;;;;2.95;1.98;;;10.40;99.90;;;;;;4957177;28;20567;-85
2023/01/02 10:34:02;;;;;;;2.00;1.80;;;10.40;99.90;;;;;;4974824;28;20181;-86
2023/01/02 10:36:32;;;;;;;3.72;1.95;;;10.40;99.90;;;;;;4974351;28;20179;-85
2023/01/02 10:39:00;;;;;;;2.65;2.30;;;10.40;99.90;;;;;;4957731;28;20216;-86
2023/01/02 10:41:26;;;;;;;2.72;2.20;;;10.50;99.90;;;;;;4974555;28;20180;-85
2023/01/02 10:43:56;;;;;;;4.03;2.42;;;10.40;99.90;;;;;;4957714;28;20243;-86
2023/01/02 10:46:22;;;;;;;2.25;2.00;;;10.40;99.90;;;;;;4974492;28;20534;-85
2023/01/02 10:48:48;;;;;;;2.83;2.27;;;10.40;99.90;;;;;;4957151;28;20192;-85
2023/01/02 10:51:15;;;;;;;4.65;2.33;;;10.50;99.90;;;;;;4973939;28;20208;-85
2023/01/02 10:53:41;;;;;;;2.88;2.25;;;10.50;99.90;;;;;;4956146;28;20235;-85
2023/01/02 10:56:17;;;;;;;3.50;2.17;;;10.60;99.90;;;;;;4956925;28;20287;-86
2023/01/02 10:58:48;;;;;;;2.78;1.95;;;10.60;99.90;;;;;;4957407;28;20467;-85
2023/01/02 11:01:19;;;;;;;2.53;2.10;;;10.60;99.90;;;;;;4974319;28;20284;-87
2023/01/02 11:03:46;;;;;;;3.75;2.75;;;10.60;99.90;;;;;;4957176;28;20168;-86
2023/01/02 11:06:20;;;;;;;5.47;3.45;;;10.60;99.90;;;;;;4975495;28;20231;-84
2023/01/02 11:09:01;;;;;;;2.83;2.40;;;10.60;99.90;;;;;;4960485;28;20184;-85
2023/01/02 11:11:30;;;;;;;3.75;2.40;;;10.60;99.90;;;;;;4960143;28;20176;-85
2023/01/02 11:14:05;;;;;;;3.42;2.20;;;10.60;99.90;;;;;;4960322;28;20250;-86
2023/01/02 11:16:35;;;;;;;1.88;1.75;;;10.60;99.90;;;;;;4960010;28;20967;-85
2023/01/02 11:19:03;;;;;;;3.53;1.88;;;10.70;99.90;;;;;;4960413;28;20302;-84
2023/01/02 11:21:32;;;;;;;2.25;1.95;;;10.60;99.90;;;;;;4960363;28;20199;-85
2023/01/02 11:24:21;;;;;;;2.50;2.30;;;10.60;99.90;;;;;;4977242;28;20217;-85
2023/01/02 11:26:48;;;;;;;3.15;2.17;;;10.60;99.90;;;;;;4960082;28;20561;-85
2023/01/02 11:29:16;;;;;;;2.42;2.22;;;10.60;99.90;;;;;;4960017;28;20211;-84
2023/01/02 11:31:50;;;;;;;3.22;2.50;;;10.60;99.90;;;;;;4977407;28;20176;-85
2023/01/02 11:34:37;;;;;;;2.20;1.80;;;10.60;99.90;;;;;;4959749;28;20172;-83
2023/01/02 11:37:14;;;;;;;3.83;2.17;;;10.70;99.90;;;;;;4977343;28;20172;-84
2023/01/02 11:39:40;;;;;;;4.18;2.33;;;10.60;99.90;;;;;;4959806;28;20208;-83
2023/01/02 11:45:21;;;;;;;2.63;2.35;;;10.50;99.90;;;;;;4977501;28;20618;-82
2023/01/02 11:47:50;;;;;;;3.60;2.30;;;10.50;99.90;;;;;;4977397;28;20278;-83
2023/01/02 11:50:24;;;;;;;2.75;2.33;;;10.40;99.90;;;;;;4977277;28;20315;-85
2023/01/02 11:53:12;;;;;;;2.50;2.28;;;10.40;99.90;;;;;;4977589;28;20176;-84
2023/01/02 11:55:45;;;;;;;2.53;2.33;;;10.50;99.90;;;;;;4977415;28;20187;-85
2023/01/02 11:58:17;;;;;;;2.65;2.42;;;10.50;99.90;;;;;;4977316;28;20557;-84
2023/01/02 12:00:47;;;;;;;73.32;10.55;;;10.50;99.90;;;;;;4977248;28;20164;-84
2023/01/02 12:03:17;;;;;;;69.57;9.00;;;10.50;99.90;;;;;;4977132;28;20549;-84
2023/01/02 12:05:52;;;;;;;4.28;2.33;;;10.50;99.90;;;;;;4959891;28;20224;-85
2023/01/02 12:08:31;;;;;;;1.67;1.55;;;10.50;99.90;;;;;;4977050;28;20172;-84
2023/01/02 12:11:30;;;;;;;130.90;17.63;;;10.60;99.90;;;;;;4960271;28;20216;-85
2023/01/02 12:14:04;;;;;;;5.88;2.35;;;10.60;99.90;;;;;;4977169;28;20561;-84
2023/01/02 12:17:01;;;;;;;1.90;1.30;;;10.60;99.90;;;;;;4975836;28;20212;-84
2023/01/02 12:19:53;;;;;;;2.88;1.27;;;10.60;99.90;;;;;;4972961;28;20208;-85
2023/01/02 12:22:40;;;;;;;1.20;0.98;;;10.60;99.90;;;;;;4976672;28;20200;-84
2023/01/02 12:25:28;;;;;;;3.72;1.27;;;10.60;99.90;;;;;;4977374;28;20507;-82
2023/01/02 12:28:13;;;;;;;2.45;0.70;;;10.60;99.90;;;;;;4977326;28;20187;-81
2023/01/02 12:30:54;;;;;;;4.00;1.00;;;10.70;99.90;;;;;;4959631;28;20231;-82
2023/01/02 12:33:34;;;;;;;29.30;5.28;;;10.70;99.90;;;;;;4959687;28;20168;-81
2023/01/02 12:36:10;;;;;;;63.17;7.80;;;10.70;99.90;;;;;;4959849;28;20177;-82
2023/01/02 12:39:04;;;;;;;23.10;2.80;;;10.70;99.90;;;;;;4977145;28;20963;-81
2023/01/02 12:41:41;;;;;;;3.70;1.27;;;10.70;99.90;;;;;;4959780;28;20184;-81
2023/01/02 12:44:35;;;;;;;2.08;1.10;;;10.70;99.90;;;;;;4960353;28;20168;-81
2023/01/02 12:47:22;;;;;;;8.00;1.25;;;10.70;99.90;;;;;;4959841;28;20188;-81
2023/01/02 12:49:55;;;;;;;2.00;1.20;;;10.70;99.90;;;;;;4977037;28;20169;-81
2023/01/02 12:52:37;;;;;;;1.70;1.20;;;10.70;99.90;;;;;;4959080;28;20183;-81
2023/01/02 12:55:28;;;;;;;4.93;1.30;;;10.70;99.90;;;;;;4959666;28;20279;-81
2023/01/02 12:58:02;;;;;;;2.75;1.20;;;10.70;99.90;;;;;;4976665;28;20272;-82
2023/01/02 13:00:52;;;;;;;1.00;0.90;;;10.70;99.90;;;;;;4959340;28;20180;-81
2023/01/02 13:03:52;;;;;;;1.75;0.90;;;10.70;99.90;;;;;;4976382;28;20531;-83
2023/01/02 13:06:41;;;;;;;0.82;0.70;;;10.60;99.90;;;;;;4958159;28;20235;-82
2023/01/02 13:09:15;;;;;;;4.25;1.95;;;10.50;99.90;;;;;;4958491;28;20246;-81
2023/01/02 13:11:51;;;;;;;3.33;2.15;;;10.50;99.90;;;;;;4958571;28;20265;-82
2023/01/02 13:14:23;;;;;;;3.08;1.00;;;10.50;99.90;;;;;;4976346;28;20171;-81